Time;durP1;ratioP1;P1;durP2;ratioP2;P2;SDS_P1;SDS_P2;PMS_P1;PMS_P2;Temp;Humidity;BMP_temperature;BMP_pressure;BME280_temperature;BME280_humidity;BME280_pressure;Samples;Min_cycle;Max_cycle;Signal;HPM_P1;HPM_P2
2023/09/19 00:01:49;;;;;;;6.05;2.10;;;;;;;-145.69;80.21;52117.63;5125811;27;20208;-85
2023/09/19 00:04:23;;;;;;;11.75;2.30;;;;;;;-145.69;79.09;52139.41;5135000;27;20566;-86
2023/09/19 00:06:50;;;;;;;9.95;2.63;;;;;;;-145.69;79.45;52143.38;5128842;27;20223;-85
2023/09/19 00:09:20;;;;;;;4.22;1.80;;;;;;;-145.69;79.54;52131.50;5113888;28;20194;-85
2023/09/19 00:11:51;;;;;;;7.90;2.95;;;;;;;-145.69;79.77;52119.63;5114170;28;20258;-84
2023/09/19 00:14:18;;;;;;;6.18;2.55;;;;;;;-145.69;80.28;52087.94;5114413;28;20197;-86
2023/09/19 00:16:46;;;;;;;6.90;2.53;;;;;;;-145.69;80.11;52143.38;5116698;27;20228;-84
2023/09/19 00:19:16;;;;;;;3.42;2.00;;;;;;;-145.69;81.46;52173.09;5119476;27;20229;-85
2023/09/19 00:21:45;;;;;;;6.82;2.20;;;;;;;-145.69;82.13;52147.34;5113871;28;20652;-85
2023/09/19 00:24:12;;;;;;;5.93;2.20;;;;;;;-145.69;82.13;52125.56;5114330;28;20246;-84
2023/09/19 00:26:39;;;;;;;9.45;2.42;;;;;;;-145.69;82.55;52143.38;5113703;28;20205;-85
2023/09/19 00:29:08;;;;;;;6.07;2.33;;;;;;;-145.69;82.22;52161.19;5113399;28;20202;-85
2023/09/19 00:31:42;;;;;;;3.92;2.10;;;;;;;-145.69;81.75;52159.22;5124213;27;20196;-84
2023/09/19 00:34:10;;;;;;;5.75;2.28;;;;;;;-145.69;82.72;52133.47;5133118;27;20196;-84
2023/09/19 00:36:38;;;;;;;5.43;1.95;;;;;;;-145.69;82.35;52153.28;5132233;27;20201;-84
2023/09/19 00:39:08;;;;;;;4.93;2.03;;;;;;;-145.69;82.18;52157.25;5115756;27;20201;-85
2023/09/19 00:41:35;;;;;;;5.32;2.08;;;;;;;-145.69;81.89;52139.41;5134066;27;20223;-84
2023/09/19 00:44:05;;;;;;;5.32;2.10;;;;;;;-145.69;81.69;52125.56;5133639;27;20277;-84
2023/09/19 00:46:33;;;;;;;3.35;1.92;;;;;;;-145.69;82.31;52127.53;5108421;27;20197;-85
2023/09/19 00:49:02;;;;;;;6.22;2.30;;;;;;;-145.69;82.23;52117.63;5134352;27;20684;-86
2023/09/19 00:51:31;;;;;;;5.88;2.80;;;;;;;-145.69;85.29;52117.63;5133081;27;20434;-84
2023/09/19 00:54:04;;;;;;;7.32;2.28;;;;;;;-145.69;83.72;52139.41;5133882;27;20201;-84
2023/09/19 00:56:32;;;;;;;4.57;2.20;;;;;;;-145.69;82.95;52113.66;5133893;27;20207;-84
2023/09/19 00:58:59;;;;;;;7.45;2.85;;;;;;;-145.69;82.70;52119.63;5113622;28;20239;-85
2023/09/19 01:01:26;;;;;;;4.22;1.75;;;;;;;-145.69;82.43;52115.66;5116657;28;20228;-85
2023/09/19 01:03:53;;;;;;;7.03;2.25;;;;;;;-145.69;81.79;52109.72;5108180;28;20193;-86
2023/09/19 01:06:21;;;;;;;5.50;2.22;;;;;;;-145.69;81.38;52159.22;5112391;28;20292;-85
2023/09/19 01:08:47;;;;;;;8.38;2.10;;;;;;;-145.69;81.23;52139.41;5113386;28;20644;-84
2023/09/19 01:11:26;;;;;;;6.05;1.90;;;;;;;-145.69;81.62;52143.38;5113545;28;20205;-84
2023/09/19 01:14:04;;;;;;;6.88;2.20;;;;;;;-145.69;81.36;52099.81;5115086;28;20679;-85
2023/09/19 01:16:40;;;;;;;3.25;1.63;;;;;;;-145.69;81.94;52143.38;5133420;27;20254;-85
2023/09/19 01:19:39;;;;;;;5.55;2.28;;;;;;;-145.69;81.71;52131.50;5123500;27;20576;-85
2023/09/19 01:22:18;;;;;;;7.63;2.17;;;;;;;-145.69;82.47;52143.38;5113393;28;20227;-84
2023/09/19 01:25:14;;;;;;;4.40;2.17;;;;;;;-145.69;82.29;52155.25;5113018;28;20197;-84
2023/09/19 01:28:07;;;;;;;13.25;2.20;;;;;;;-145.69;82.01;52117.63;5113142;28;20208;-83
2023/09/19 01:30:40;;;;;;;7.50;2.22;;;;;;;-145.69;82.40;52145.34;5131917;27;20201;-86
2023/09/19 01:33:14;;;;;;;7.47;1.90;;;;;;;-145.69;82.44;52149.31;5115554;27;20197;-84
2023/09/19 01:35:43;;;;;;;6.85;2.30;;;;;;;-145.69;81.97;52149.31;5113162;28;20205;-85
2023/09/19 01:38:14;;;;;;;5.10;2.08;;;;;;;-145.69;81.69;52151.28;5113454;28;20205;-85
2023/09/19 01:40:43;;;;;;;5.43;2.25;;;;;;;-145.69;81.36;52125.56;5131055;27;20221;-86
2023/09/19 01:43:17;;;;;;;4.50;1.90;;;;;;;-145.69;80.74;52131.50;5137720;27;20200;-86
2023/09/19 01:45:50;;;;;;;5.72;2.22;;;;;;;-145.69;80.93;52107.72;5137733;27;20212;-85
2023/09/19 01:48:27;;;;;;;5.47;2.00;;;;;;;-145.69;80.81;52127.53;5134833;27;20197;-85
2023/09/19 01:51:01;;;;;;;4.53;2.17;;;;;;;-145.69;80.56;52111.69;5096508;28;20213;-85
2023/09/19 01:53:31;;;;;;;5.53;2.10;;;;;;;-145.69;80.65;52127.53;5096132;28;20212;-85
2023/09/19 01:56:02;;;;;;;8.43;1.90;;;;;;;-145.69;79.21;52155.25;5124892;27;20192;-85
2023/09/19 01:58:33;;;;;;;4.55;2.00;;;;;;;-145.69;77.43;52137.44;5128868;27;20201;-84
2023/09/19 02:01:03;;;;;;;6.28;2.00;;;;;;;-145.69;78.50;52141.41;5116491;27;20229;-83
2023/09/19 02:03:31;;;;;;;3.35;1.92;;;;;;;-145.69;79.17;52165.16;5116624;28;20545;-84
2023/09/19 02:06:00;;;;;;;7.18;1.88;;;;;;;-145.69;78.23;52129.50;5127771;27;20195;-84
2023/09/19 02:08:31;;;;;;;3.58;1.80;;;;;;;-145.69;78.36;52145.34;5136713;27;20201;-84
2023/09/19 02:11:00;;;;;;;3.40;1.67;;;;;;;-145.69;77.57;52159.22;5136490;27;20211;-84
2023/09/19 02:13:28;;;;;;;5.95;1.80;;;;;;;-145.69;77.57;52147.34;5136935;27;20257;-84
2023/09/19 02:15:55;;;;;;;4.15;1.70;;;;;;;-145.69;77.84;52145.34;5125775;27;20680;-83
2023/09/19 02:18:23;;;;;;;4.28;1.80;;;;;;;-145.69;79.75;52129.50;5115794;28;20712;-85
2023/09/19 02:20:51;;;;;;;5.03;2.28;;;;;;;-145.69;78.87;52159.22;5116269;27;20225;-84
2023/09/19 02:23:26;;;;;;;5.78;2.10;;;;;;;-145.69;78.92;52155.25;5115809;28;20205;-83
2023/09/19 02:25:53;;;;;;;5.15;2.20;;;;;;;-145.69;79.46;52161.19;5124854;27;20200;-84
2023/09/19 02:28:20;;;;;;;3.95;2.20;;;;;;;-145.69;79.55;52129.50;5129903;27;20266;-83
2023/09/19 02:30:51;;;;;;;4.90;2.17;;;;;;;-145.69;79.28;52131.50;5115821;28;20200;-84
2023/09/19 02:33:18;;;;;;;5.47;2.35;;;;;;;-145.69;79.71;52153.28;5115946;27;20194;-83
2023/09/19 02:35:49;;;;;;;4.32;2.13;;;;;;;-145.69;80.00;52147.34;5123284;27;20197;-83
2023/09/19 02:38:20;;;;;;;3.95;2.00;;;;;;;-145.69;79.71;52091.88;5136085;27;20197;-83
2023/09/19 02:40:47;;;;;;;4.53;1.92;;;;;;;-145.69;79.58;52155.25;5136132;27;20225;-83
2023/09/19 02:43:14;;;;;;;5.78;2.65;;;;;;;-145.69;79.65;52155.25;5136166;27;20258;-84
2023/09/19 02:45:41;;;;;;;6.03;1.98;;;;;;;-145.69;79.57;52135.47;5129290;27;20201;-83
2023/09/19 02:48:15;;;;;;;4.32;2.13;;;;;;;-145.69;79.84;52115.66;5115417;28;20659;-84
2023/09/19 02:50:44;;;;;;;3.55;2.10;;;;;;;-145.69;80.29;52139.41;5114920;28;20196;-83
2023/09/19 02:53:12;;;;;;;4.00;2.40;;;;;;;-145.69;80.76;52135.47;5115443;28;20292;-84
2023/09/19 02:55:42;;;;;;;6.28;2.20;;;;;;;-145.69;80.85;52147.34;5121657;27;20212;-85
2023/09/19 02:58:14;;;;;;;5.45;2.17;;;;;;;-145.69;80.81;52127.53;5131178;27;20660;-84
2023/09/19 03:00:47;;;;;;;4.60;2.10;;;;;;;-145.69;80.60;52159.22;5115222;28;20224;-84
2023/09/19 03:03:16;;;;;;;3.40;1.88;;;;;;;-145.69;80.58;52157.25;5115266;28;20582;-86
2023/09/19 03:05:47;;;;;;;10.43;2.10;;;;;;;-145.69;80.59;52155.25;5115631;27;20240;-84
2023/09/19 03:08:22;;;;;;;3.80;2.00;;;;;;;-145.69;80.54;52123.56;5124428;27;20188;-84
2023/09/19 03:10:48;;;;;;;3.65;2.22;;;;;;;-145.69;80.33;52141.41;5135695;27;20287;-85
2023/09/19 03:13:18;;;;;;;3.15;2.08;;;;;;;-145.69;80.49;52145.34;5135052;27;20671;-84
2023/09/19 03:15:46;;;;;;;4.40;2.10;;;;;;;-145.69;79.79;52186.94;5128649;27;20242;-84
2023/09/19 03:18:13;;;;;;;5.00;2.20;;;;;;;-145.69;79.91;52155.25;5130699;27;20235;-84
2023/09/19 03:20:39;;;;;;;5.65;2.50;;;;;;;-145.69;78.40;52151.28;5133845;27;20308;-84
2023/09/19 03:23:08;;;;;;;7.50;2.00;;;;;;;-145.69;79.58;52093.88;5135694;27;20200;-85
2023/09/19 03:25:36;;;;;;;5.70;2.20;;;;;;;-145.69;79.41;52133.47;5133373;27;20256;-84
2023/09/19 03:28:05;;;;;;;6.28;1.77;;;;;;;-145.69;80.04;52135.47;5109849;27;20312;-84
2023/09/19 03:30:33;;;;;;;4.20;1.98;;;;;;;-145.69;80.03;52131.50;5135077;27;20203;-84
2023/09/19 03:33:00;;;;;;;4.35;1.73;;;;;;;-145.69;79.99;52123.56;5135236;27;20283;-85
2023/09/19 03:35:30;;;;;;;3.08;1.70;;;;;;;-145.69;79.75;52155.25;5130079;27;20217;-85
2023/09/19 03:37:59;;;;;;;4.53;1.98;;;;;;;-145.69;79.85;52143.38;5135170;27;20243;-83
2023/09/19 03:40:25;;;;;;;3.97;1.77;;;;;;;-145.69;80.22;52139.41;5135116;27;20209;-84
2023/09/19 03:42:53;;;;;;;4.45;1.63;;;;;;;-145.69;80.54;52135.47;5135112;27;20257;-85
2023/09/19 03:45:23;;;;;;;5.43;2.13;;;;;;;-145.69;80.83;52135.47;5135039;27;20193;-81
2023/09/19 03:47:52;;;;;;;2.95;2.00;;;;;;;-145.69;81.08;52143.38;5114235;27;20598;-84
2023/09/19 03:50:19;;;;;;;3.72;2.05;;;;;;;-145.69;81.80;52115.66;5114274;28;20210;-84
2023/09/19 03:52:45;;;;;;;2.47;1.60;;;;;;;-145.69;81.49;52171.09;5113068;28;20695;-85
2023/09/19 03:55:16;;;;;;;4.75;2.03;;;;;;;-145.69;81.61;52137.44;5112065;28;20193;-83
2023/09/19 03:57:49;;;;;;;2.83;1.80;;;;;;;-145.69;81.76;52123.56;5132870;27;20197;-84
2023/09/19 04:00:21;;;;;;;4.38;1.80;;;;;;;-145.69;81.43;52141.41;5126919;27;20209;-83
2023/09/19 04:02:47;;;;;;;3.95;1.50;;;;;;;-145.69;81.30;52131.50;5134497;27;20741;-83
2023/09/19 04:05:14;;;;;;;2.50;1.60;;;;;;;-145.69;81.05;52179.03;5134620;27;20193;-83
2023/09/19 04:07:46;;;;;;;6.40;2.00;;;;;;;-145.69;81.13;52119.63;5114986;27;20640;-83
2023/09/19 04:10:14;;;;;;;4.28;2.10;;;;;;;-145.69;80.95;52155.25;5114154;28;20205;-83
2023/09/19 04:12:43;;;;;;;2.72;1.70;;;;;;;-145.69;81.25;52167.13;5113921;28;20201;-82
2023/09/19 04:15:13;;;;;;;2.88;1.50;;;;;;;-145.69;81.71;52157.25;5114021;28;20288;-83
2023/09/19 04:17:41;;;;;;;3.55;1.48;;;;;;;-145.69;81.46;52111.69;5114224;27;20620;-83
2023/09/19 04:20:08;;;;;;;2.60;1.30;;;;;;;-145.69;81.09;52175.06;5113829;28;20201;-83
2023/09/19 04:22:35;;;;;;;2.50;1.23;;;;;;;-145.69;81.42;52184.97;5113586;28;20221;-83
2023/09/19 04:25:07;;;;;;;7.93;1.65;;;;;;;-145.69;81.23;52179.03;5113593;28;20563;-84
2023/09/19 04:27:38;;;;;;;2.83;1.45;;;;;;;-145.69;81.51;52155.25;5130567;27;20224;-83
2023/09/19 04:30:10;;;;;;;4.82;1.50;;;;;;;-145.69;80.82;52161.19;5132948;27;20207;-83
2023/09/19 04:32:38;;;;;;;6.65;1.77;;;;;;;-145.69;83.24;52155.25;5133351;27;20442;-83
2023/09/19 04:35:11;;;;;;;3.05;1.83;;;;;;;-145.69;83.13;52179.03;5134058;27;20199;-84
2023/09/19 04:37:41;;;;;;;5.72;1.50;;;;;;;-145.69;82.59;52171.09;5117293;27;20537;-83
2023/09/19 04:40:14;;;;;;;5.32;1.63;;;;;;;-145.69;83.49;52141.41;5113426;28;20567;-83
2023/09/19 04:42:43;;;;;;;3.08;1.40;;;;;;;-145.69;83.47;52190.91;5113250;28;20311;-84
2023/09/19 04:45:11;;;;;;;2.80;1.70;;;;;;;-145.69;82.35;52181.00;5113605;28;20228;-84
2023/09/19 04:47:38;;;;;;;4.38;1.70;;;;;;;-145.69;81.33;52171.09;5113672;28;20697;-83
2023/09/19 04:50:07;;;;;;;3.97;1.23;;;;;;;-145.69;81.29;52182.97;5113545;28;20576;-83
2023/09/19 04:52:39;;;;;;;3.33;1.80;;;;;;;-145.69;82.79;52192.88;5129557;28;20204;-83
2023/09/19 04:55:16;;;;;;;2.72;1.60;;;;;;;-145.69;82.94;52177.03;5132210;27;20240;-83
2023/09/19 04:57:44;;;;;;;6.82;1.58;;;;;;;-145.69;81.94;52212.69;5130952;27;20283;-85
2023/09/19 05:00:14;;;;;;;2.25;1.27;;;;;;;-145.69;81.98;52188.91;5113269;28;20211;-82
2023/09/19 05:02:40;;;;;;;2.20;1.55;;;;;;;-145.69;82.36;52181.00;5113143;28;20229;-83
2023/09/19 05:05:08;;;;;;;3.00;1.88;;;;;;;-145.69;81.92;52173.09;5113136;28;20208;-84
2023/09/19 05:07:36;;;;;;;3.03;1.70;;;;;;;-145.69;82.90;52155.25;5129036;28;20201;-83
2023/09/19 05:10:06;;;;;;;5.55;1.77;;;;;;;-145.69;82.60;52194.88;5133421;27;20205;-83
2023/09/19 05:12:33;;;;;;;6.10;1.95;;;;;;;-145.69;82.84;52222.59;5133523;28;20203;-84
2023/09/19 05:15:01;;;;;;;9.10;1.90;;;;;;;-145.69;82.75;52159.22;5134763;27;20293;-84
2023/09/19 05:17:32;;;;;;;7.13;1.70;;;;;;;-145.69;82.46;52186.94;5117682;27;20618;-84
2023/09/19 05:20:00;;;;;;;4.47;1.75;;;;;;;-145.69;82.40;52169.13;5096676;28;20537;-83
2023/09/19 05:22:32;;;;;;;6.80;2.25;;;;;;;-145.69;84.80;52186.94;5104147;27;20225;-83
2023/09/19 05:25:04;;;;;;;4.32;1.80;;;;;;;-145.69;85.41;52181.00;5117235;28;20209;-83
2023/09/19 05:27:31;;;;;;;4.18;2.00;;;;;;;-145.69;85.39;52157.25;5117663;27;20551;-83
2023/09/19 05:30:00;;;;;;;2.88;2.20;;;;;;;-145.69;84.68;52206.75;5117504;27;20675;-84
2023/09/19 05:32:30;;;;;;;4.47;2.05;;;;;;;-145.69;85.46;52198.81;5122302;27;20200;-84
2023/09/19 05:34:57;;;;;;;4.13;2.10;;;;;;;-145.69;85.38;52155.25;5120502;27;20194;-82
2023/09/19 05:37:26;;;;;;;4.03;1.95;;;;;;;-145.69;84.95;52163.19;5111357;27;20222;-83
2023/09/19 05:39:52;;;;;;;4.70;1.95;;;;;;;-145.69;85.19;52175.06;5116833;28;20551;-84
2023/09/19 05:42:20;;;;;;;3.38;1.83;;;;;;;-145.69;84.74;52159.22;5117084;27;20233;-84
2023/09/19 05:44:47;;;;;;;4.95;2.15;;;;;;;-145.69;84.82;52184.97;5116855;28;20205;-83
2023/09/19 05:47:13;;;;;;;5.07;2.00;;;;;;;-145.69;84.78;52179.03;5116694;28;20200;-82
2023/09/19 05:49:40;;;;;;;3.55;1.70;;;;;;;-145.69;84.97;52163.19;5116805;28;20205;-84
2023/09/19 05:52:07;;;;;;;1.88;1.50;;;;;;;-145.69;85.20;52157.25;5118800;27;20551;-84
2023/09/19 05:54:34;;;;;;;5.72;1.50;;;;;;;-145.69;84.92;52151.28;5119336;27;20205;-83
2023/09/19 05:57:01;;;;;;;2.58;1.60;;;;;;;-145.69;85.31;52171.09;5095942;28;20233;-83
2023/09/19 05:59:29;;;;;;;4.70;1.40;;;;;;;-145.69;85.75;52149.31;5128243;27;20193;-83
2023/09/19 06:01:56;;;;;;;3.58;1.08;;;;;;;-145.69;85.52;52157.25;5136207;27;20613;-83
2023/09/19 06:04:23;;;;;;;1.92;1.15;;;;;;;-145.69;85.31;52181.00;5136860;27;20203;-83
2023/09/19 06:06:49;;;;;;;4.00;1.30;;;;;;;-145.69;84.97;52175.06;5136928;27;20250;-84
2023/09/19 06:09:15;;;;;;;2.83;1.38;;;;;;;-145.69;84.85;52171.09;5136622;27;20196;-84
2023/09/19 06:11:42;;;;;;;4.22;1.10;;;;;;;-145.69;84.75;52139.41;5136731;27;20196;-85
2023/09/19 06:14:10;;;;;;;1.92;1.10;;;;;;;-145.69;83.26;52139.41;5117590;27;20194;-85
2023/09/19 06:16:39;;;;;;;2.88;1.00;;;;;;;-145.69;82.58;52161.19;5123946;27;20196;-86
2023/09/19 06:19:08;;;;;;;2.53;1.20;;;;;;;-145.69;83.98;52167.13;5136656;27;20236;-83
2023/09/19 06:21:35;;;;;;;3.58;1.30;;;;;;;-145.69;83.63;52131.50;5119858;27;20234;-82
2023/09/19 06:24:01;;;;;;;2.97;1.10;;;;;;;-145.69;84.05;52153.28;5116091;28;20670;-84
2023/09/19 06:26:28;;;;;;;3.13;1.25;;;;;;;-145.69;84.25;52165.16;5120565;27;20205;-82
2023/09/19 06:28:55;;;;;;;1.88;1.30;;;;;;;-145.69;84.12;52127.53;5123682;27;20193;-83
2023/09/19 06:31:22;;;;;;;2.47;1.30;;;;;;;-145.69;84.26;52163.19;5130582;27;20230;-83
2023/09/19 06:33:50;;;;;;;1.77;1.10;;;;;;;-145.69;83.67;52131.50;5136948;27;20559;-83
2023/09/19 06:36:17;;;;;;;1.13;1.02;;;;;;;-145.69;83.95;52165.16;5134620;27;20190;-83
2023/09/19 06:38:43;;;;;;;1.73;0.90;;;;;;;-145.69;84.52;52139.41;5135328;27;20528;-83
2023/09/19 06:41:10;;;;;;;1.85;1.05;;;;;;;-145.69;83.77;52149.31;5134492;27;20201;-84
2023/09/19 06:43:36;;;;;;;2.55;1.40;;;;;;;-145.69;84.00;52177.03;5132303;27;20201;-83
2023/09/19 06:46:03;;;;;;;2.72;1.17;;;;;;;-145.69;86.20;52153.28;5112761;28;20955;-83
2023/09/19 06:48:30;;;;;;;1.05;0.90;;;;;;;-145.69;83.24;52135.47;5112995;28;20729;-83
2023/09/19 06:51:04;;;;;;;2.63;0.90;;;;;;;-145.69;83.68;52147.34;5114204;28;20205;-83
2023/09/19 06:53:31;;;;;;;2.55;0.90;;;;;;;-145.69;80.93;52129.50;5114633;28;20202;-83
2023/09/19 06:55:58;;;;;;;3.42;1.13;;;;;;;-145.69;80.76;52155.25;5115575;28;20606;-83
2023/09/19 06:58:24;;;;;;;1.20;0.90;;;;;;;-145.69;82.92;52179.03;5119023;27;20193;-84
2023/09/19 07:00:51;;;;;;;2.58;1.02;;;;;;;-145.69;81.57;52137.44;5115423;28;20235;-82
2023/09/19 07:03:18;;;;;;;2.70;1.10;;;;;;;-145.69;83.60;52163.19;5115216;28;20229;-85
2023/09/19 07:05:45;;;;;;;3.35;1.20;;;;;;;-145.69;84.02;52159.22;5135101;27;20193;-84
2023/09/19 07:08:13;;;;;;;1.08;0.80;;;;;;;-145.69;81.69;52143.38;5135900;27;20208;-84
2023/09/19 07:10:40;;;;;;;1.00;0.90;;;;;;;-145.69;83.42;52127.53;5135807;27;20196;-85
2023/09/19 07:13:10;;;;;;;3.80;1.08;;;;;;;-145.69;82.92;52151.28;5135152;27;20224;-82
2023/09/19 07:15:39;;;;;;;5.68;0.73;;;;;;;-145.69;80.95;52135.47;5117938;27;20194;-84
2023/09/19 07:18:06;;;;;;;1.40;0.80;;;;;;;-145.69;85.80;52163.19;5127884;27;20227;-83
2023/09/19 07:20:34;;;;;;;3.15;1.00;;;;;;;-145.69;83.34;52103.78;5135809;27;20241;-84
2023/09/19 07:23:00;;;;;;;3.45;1.10;;;;;;;-145.69;86.19;52097.84;5134099;27;20552;-84
2023/09/19 07:25:29;;;;;;;0.80;0.80;;;;;;;-145.69;81.85;52119.63;5129358;27;20193;-84
2023/09/19 07:27:56;;;;;;;1.85;1.00;;;;;;;-145.69;83.27;52107.72;5119029;27;20204;-84
2023/09/19 07:30:23;;;;;;;5.47;1.20;;;;;;;-145.69;78.22;52151.28;5135165;27;20218;-84
2023/09/19 07:32:50;;;;;;;1.65;1.00;;;;;;;-145.69;80.04;52149.31;5119712;27;20606;-84
2023/09/19 07:35:16;;;;;;;2.42;1.05;;;;;;;-145.69;77.96;52171.09;5114586;28;20221;-85
2023/09/19 07:37:43;;;;;;;1.20;1.05;;;;;;;-145.69;80.00;52159.22;5114876;28;20230;-83
2023/09/19 07:40:10;;;;;;;4.88;1.30;;;;;;;-145.69;80.18;52167.13;5115252;27;20209;-83
2023/09/19 07:42:40;;;;;;;4.60;1.23;;;;;;;-145.69;78.78;52121.59;5114883;28;20260;-82
2023/09/19 07:45:08;;;;;;;5.13;1.60;;;;;;;-145.69;78.31;52186.94;5114979;28;20255;-84
2023/09/19 07:47:36;;;;;;;3.70;1.67;;;;;;;-145.69;80.68;52163.19;5114982;28;20220;-85
2023/09/19 07:50:02;;;;;;;3.38;1.70;;;;;;;-145.69;81.01;52208.72;5115122;28;20227;-84
2023/09/19 07:52:29;;;;;;;2.38;1.67;;;;;;;-145.69;82.58;52163.19;5115787;27;20197;-85
2023/09/19 07:54:57;;;;;;;2.65;1.50;;;;;;;-145.69;83.55;52190.91;5109107;27;20189;-84
2023/09/19 07:57:23;;;;;;;4.70;1.77;;;;;;;-145.69;83.32;52198.81;5114582;28;20247;-85
2023/09/19 07:59:51;;;;;;;4.95;1.98;;;;;;;-145.69;84.04;52163.19;5133038;27;20196;-84
2023/09/19 08:02:18;;;;;;;5.45;2.35;;;;;;;-145.69;83.59;52190.91;5135375;27;20224;-85
2023/09/19 08:04:46;;;;;;;5.65;2.55;;;;;;;-145.69;84.21;52179.03;5135027;27;20249;-85
2023/09/19 08:07:16;;;;;;;4.78;2.30;;;;;;;-145.69;85.09;52179.03;5126016;27;20193;-85
2023/09/19 08:09:46;;;;;;;6.97;2.53;;;;;;;-145.69;85.80;52181.00;5114740;28;20212;-85
2023/09/19 08:12:12;;;;;;;6.50;2.42;;;;;;;-145.69;85.02;52184.97;5114407;28;20213;-85
2023/09/19 08:14:41;;;;;;;7.03;3.08;;;;;;;-145.69;87.58;52175.06;5117199;27;20778;-85
2023/09/19 08:17:09;;;;;;;3.80;2.05;;;;;;;-145.69;84.86;52179.03;5130577;27;20192;-84
2023/09/19 08:19:36;;;;;;;6.20;2.60;;;;;;;-145.69;83.70;52184.97;5128687;27;20254;-84
2023/09/19 08:22:03;;;;;;;3.00;1.90;;;;;;;-145.69;84.15;52163.19;5112118;27;20260;-84
2023/09/19 08:24:30;;;;;;;7.20;2.70;;;;;;;-145.69;84.36;52218.63;5113943;28;20237;-84
2023/09/19 08:26:58;;;;;;;4.43;2.15;;;;;;;-145.69;84.90;52163.19;5114476;28;20189;-85
2023/09/19 08:29:29;;;;;;;4.28;2.63;;;;;;;-145.69;86.52;52192.88;5128732;27;20219;-84
2023/09/19 08:31:56;;;;;;;5.28;2.40;;;;;;;-145.69;87.87;52143.38;5122470;27;20198;-85
2023/09/19 08:34:24;;;;;;;3.58;1.88;;;;;;;-145.69;84.51;52163.19;5134382;27;20289;-84
2023/09/19 08:36:52;;;;;;;4.78;2.50;;;;;;;-145.69;82.39;52157.25;5128215;27;20283;-83
2023/09/19 08:39:21;;;;;;;6.03;1.63;;;;;;;-145.69;81.11;52143.38;5134050;27;20200;-84
2023/09/19 08:41:47;;;;;;;5.15;1.40;;;;;;;-145.69;82.39;52186.94;5124710;27;20204;-84
2023/09/19 08:44:17;;;;;;;1.90;1.30;;;;;;;-145.69;81.96;52143.38;5133290;27;20279;-84
2023/09/19 08:46:45;;;;;;;3.42;1.35;;;;;;;-145.69;83.47;52179.03;5117071;27;20244;-84
2023/09/19 08:49:22;;;;;;;3.30;1.52;;;;;;;-145.69;83.73;52163.19;5092349;28;20198;-84
2023/09/19 08:52:02;;;;;;;3.50;1.50;;;;;;;-145.69;82.57;52155.25;5093394;28;20208;-84
2023/09/19 08:54:38;;;;;;;3.00;1.60;;;;;;;-145.69;82.13;52181.00;5094989;28;20229;-83
2023/09/19 08:57:10;;;;;;;3.03;1.17;;;;;;;-145.69;82.60;52165.16;5113376;28;20196;-83
2023/09/19 08:59:39;;;;;;;2.85;1.60;;;;;;;-145.69;82.43;52163.19;5114361;28;20232;-83
2023/09/19 09:02:12;;;;;;;3.42;1.80;;;;;;;-145.69;83.98;52149.31;5094443;28;20298;-83
2023/09/19 09:04:40;;;;;;;4.68;1.70;;;;;;;-145.69;85.18;52135.47;5115419;27;20201;-83
2023/09/19 09:07:12;;;;;;;3.55;1.60;;;;;;;-145.69;84.83;52135.47;5113480;28;20203;-83
2023/09/19 09:09:42;;;;;;;2.03;1.33;;;;;;;-145.69;83.18;52143.38;5112771;28;20690;-83
2023/09/19 09:12:13;;;;;;;5.13;1.63;;;;;;;-145.69;84.36;52149.31;5113584;28;20635;-84
2023/09/19 09:14:47;;;;;;;7.00;1.23;;;;;;;-145.69;87.22;52123.56;5129041;27;20203;-84
2023/09/19 09:17:14;;;;;;;3.70;1.60;;;;;;;-145.69;82.70;52109.72;5092299;28;20292;-84
2023/09/19 09:19:41;;;;;;;2.75;1.30;;;;;;;-145.69;79.44;52151.28;5094583;28;20208;-85
2023/09/19 09:22:10;;;;;;;1.85;1.50;;;;;;;-145.69;82.70;52115.66;5112745;28;20208;-83
2023/09/19 09:24:39;;;;;;;2.80;1.45;;;;;;;-145.69;80.25;52151.28;5120416;27;20526;-83
2023/09/19 09:27:08;;;;;;;4.25;1.50;;;;;;;-145.69;83.29;52125.56;5101849;28;20201;-84
2023/09/19 09:29:46;;;;;;;2.35;1.00;;;;;;;-145.69;80.39;52068.13;5110413;28;20193;-84
2023/09/19 09:32:24;;;;;;;1.77;1.15;;;;;;;-145.69;79.13;52095.84;5116876;28;20204;-84
2023/09/19 09:34:56;;;;;;;2.30;1.48;;;;;;;-145.69;80.76;52082.00;5111275;28;20193;-84
2023/09/19 09:37:26;;;;;;;1.83;1.17;;;;;;;-145.69;81.07;52109.72;5113028;28;20212;-85
2023/09/19 09:39:54;;;;;;;2.40;1.40;;;;;;;-145.69;79.72;52111.69;5112654;28;20233;-84
2023/09/19 09:42:32;;;;;;;1.67;0.98;;;;;;;-145.69;79.07;52123.56;5112831;28;20205;-84
2023/09/19 09:45:16;;;;;;;2.47;1.40;;;;;;;-145.69;77.84;52089.91;5112085;28;20194;-83
2023/09/19 09:47:49;;;;;;;5.57;1.25;;;;;;;-145.69;80.32;52113.66;5092330;28;20198;-84
2023/09/19 09:50:29;;;;;;;4.60;1.20;;;;;;;-145.69;79.07;52127.53;5092770;28;20186;-85
2023/09/19 09:53:06;;;;;;;2.42;1.20;;;;;;;-145.69;73.98;52046.34;5103246;28;20272;-86
2023/09/19 09:56:05;;;;;;;2.00;1.10;;;;;;;-145.69;71.58;52091.88;5119529;27;20193;-83
2023/09/19 09:58:32;;;;;;;4.68;1.30;;;;;;;-145.69;75.14;52087.94;5113469;28;20206;-84
2023/09/19 10:01:03;;;;;;;1.45;1.10;;;;;;;-145.69;72.17;52099.81;5117409;27;20209;-81
2023/09/19 10:03:38;;;;;;;4.43;1.45;;;;;;;-145.69;71.86;52107.72;5116190;28;20323;-84
2023/09/19 10:06:24;;;;;;;3.00;1.13;;;;;;;-145.69;75.07;52091.88;5116114;28;20529;-87
2023/09/19 10:09:13;;;;;;;2.22;1.05;;;;;;;-145.69;74.36;52097.84;5129476;27;20189;-85
2023/09/19 10:11:42;;;;;;;1.17;1.00;;;;;;;-145.69;74.91;52099.81;5137270;27;20205;-85
2023/09/19 10:14:14;;;;;;;7.57;1.13;;;;;;;-145.69;64.34;52111.69;5136846;27;20201;-86
2023/09/19 10:16:42;;;;;;;3.50;1.40;;;;;;;-145.69;71.59;52064.16;5105106;27;20255;-85
2023/09/19 10:19:10;;;;;;;2.33;1.00;;;;;;;-145.69;68.37;52056.25;5126640;27;20379;-84
2023/09/19 10:21:39;;;;;;;2.17;1.08;;;;;;;-145.69;69.52;52103.78;5121661;27;20190;-86
2023/09/19 10:24:09;;;;;;;1.50;0.93;;;;;;;-145.69;66.90;52115.66;5115879;28;20316;-85
2023/09/19 10:26:39;;;;;;;1.60;1.00;;;;;;;-145.69;71.16;52113.66;5115809;28;20189;-86
2023/09/19 10:29:09;;;;;;;3.97;1.15;;;;;;;-145.69;71.67;52119.63;5117370;27;20200;-87
2023/09/19 10:31:40;;;;;;;1.00;0.88;;;;;;;-145.69;72.88;52095.84;5116107;28;20297;-82
2023/09/19 10:34:09;;;;;;;1.90;1.05;;;;;;;-145.69;70.03;52095.84;5115619;28;20208;-85
2023/09/19 10:36:38;;;;;;;2.88;0.98;;;;;;;-145.69;69.37;52095.84;5115524;28;20293;-81
2023/09/19 10:39:11;;;;;;;3.38;1.60;;;;;;;-145.69;69.71;52115.66;5126507;27;20660;-83
2023/09/19 10:41:38;;;;;;;4.22;1.35;;;;;;;-145.69;65.63;52127.53;5105499;27;20293;-86
2023/09/19 10:44:06;;;;;;;2.15;0.90;;;;;;;-145.69;65.40;52103.78;5094979;28;20799;-85
2023/09/19 10:46:33;;;;;;;2.83;0.90;;;;;;;-145.69;64.95;52095.84;5095110;28;20194;-82
2023/09/19 10:49:01;;;;;;;3.45;0.85;;;;;;;-145.69;66.41;52082.00;5095336;28;20206;-85
2023/09/19 10:51:32;;;;;;;2.65;0.85;;;;;;;-145.69;65.08;52089.91;5115484;27;20644;-81
2023/09/19 10:54:06;;;;;;;3.65;1.02;;;;;;;-145.69;64.53;52091.88;5115526;28;20209;-85
2023/09/19 10:56:37;;;;;;;1.67;1.08;;;;;;;-145.69;66.53;52087.94;5101908;28;20202;-83
2023/09/19 10:59:09;;;;;;;2.45;1.10;;;;;;;-145.69;64.59;52078.03;5116639;27;20245;-84
2023/09/19 11:01:47;;;;;;;1.73;0.90;;;;;;;-145.69;62.74;52072.09;5108101;27;20194;-84
2023/09/19 11:04:31;;;;;;;2.42;1.13;;;;;;;-145.69;56.47;52091.88;5095333;28;20271;-83
2023/09/19 11:07:03;;;;;;;2.80;0.75;;;;;;;-145.69;55.94;52080.00;5095051;28;20198;-82
2023/09/19 11:09:45;;;;;;;2.17;0.75;;;;;;;-145.69;57.33;52060.22;5115843;27;20206;-83
2023/09/19 11:12:14;;;;;;;2.90;1.10;;;;;;;-145.69;57.63;52070.09;5112917;28;20204;-82
2023/09/19 11:14:44;;;;;;;3.13;0.95;;;;;;;-145.69;54.09;52048.31;5115016;28;20678;-81
2023/09/19 11:17:34;;;;;;;3.53;0.70;;;;;;;-145.69;52.00;52076.03;5115087;28;20197;-81
2023/09/19 11:20:41;;;;;;;3.13;0.90;;;;;;;-145.69;53.31;52018.63;5116133;27;20200;-83
2023/09/19 11:23:27;;;;;;;1.98;1.00;;;;;;;-145.69;51.39;52036.44;5115118;28;20684;-84
2023/09/19 11:25:54;;;;;;;2.08;0.80;;;;;;;-145.69;46.98;52044.38;5114732;28;20243;-84
2023/09/19 11:28:32;;;;;;;2.85;0.95;;;;;;;-145.69;49.68;52046.34;5127775;27;20197;-84
2023/09/19 11:31:00;;;;;;;2.95;1.10;;;;;;;-145.69;47.58;52048.31;5121304;27;20202;-82